createdAt,value
2024-04-15T00:01:48.008Z,98158.63
2024-04-15T00:04:14.970Z,98166.38
2024-04-15T00:06:41.652Z,98169.63
2024-04-15T00:09:08.310Z,98160.81
2024-04-15T00:11:35.037Z,98154.41
2024-04-15T00:14:01.661Z,98157.81
2024-04-15T00:16:28.376Z,98158.97
2024-04-15T00:18:55.166Z,98170.34
2024-04-15T00:21:21.808Z,98168.25
2024-04-15T00:23:48.524Z,98174.75
2024-04-15T00:26:15.241Z,98175.44
2024-04-15T00:28:41.914Z,98177.88
2024-04-15T00:31:08.572Z,98181.72
2024-04-15T00:33:35.406Z,98170.78
2024-04-15T00:36:02.194Z,98185.19
2024-04-15T00:38:28.832Z,98180.56
2024-04-15T00:40:55.689Z,98187.84
2024-04-15T00:43:22.398Z,98189.13
2024-04-15T00:45:49.140Z,98192.44
2024-04-15T00:48:16.075Z,98198.59
2024-04-15T00:50:42.794Z,98186.03
2024-04-15T00:53:09.471Z,98202.03
2024-04-15T00:55:36.194Z,98195.53
2024-04-15T00:58:02.965Z,98201.31
2024-04-15T01:00:29.684Z,98215.59
2024-04-15T01:02:56.393Z,98216.63
2024-04-15T01:05:23.032Z,98218.91
2024-04-15T01:07:49.697Z,98232.38
2024-04-15T01:10:16.444Z,98228.16
2024-04-15T01:12:43.159Z,98237.00
2024-04-15T01:15:09.822Z,98236.06
2024-04-15T01:17:36.562Z,98239.50
2024-04-15T01:20:03.177Z,98232.53
2024-04-15T01:22:31.319Z,98240.88
2024-04-15T01:24:58.108Z,98239.06
2024-04-15T01:27:24.731Z,98242.97
2024-04-15T01:29:51.347Z,98239.06
2024-04-15T01:32:18.140Z,98239.00
2024-04-15T01:34:44.966Z,98243.66
2024-04-15T01:37:11.693Z,98247.88
2024-04-15T01:39:38.554Z,98251.09
2024-04-15T01:42:05.242Z,98247.28
2024-04-15T01:44:31.908Z,98241.91
2024-04-15T01:46:58.692Z,98248.19
2024-04-15T01:49:25.368Z,98251.00
2024-04-15T01:51:52.042Z,98240.38
2024-04-15T01:54:18.729Z,98245.44
2024-04-15T01:56:45.345Z,98243.22
2024-04-15T01:59:12.047Z,98243.00
2024-04-15T02:01:38.816Z,98237.44
2024-04-15T02:04:05.512Z,98242.84
2024-04-15T02:06:32.202Z,98241.63
2024-04-15T02:08:58.991Z,98244.56
2024-04-15T02:11:25.754Z,98253.41
2024-04-15T02:13:52.596Z,98244.91
2024-04-15T02:16:19.675Z,98251.63
2024-04-15T02:18:46.494Z,98254.69
2024-04-15T02:21:13.178Z,98257.59
2024-04-15T02:23:39.870Z,98261.72
2024-04-15T02:26:06.521Z,98256.28
2024-04-15T02:28:33.164Z,98253.97
2024-04-15T02:30:59.874Z,98262.00
2024-04-15T02:33:26.534Z,98270.66
2024-04-15T02:35:53.159Z,98262.50
2024-04-15T02:38:19.913Z,98274.97
2024-04-15T02:40:46.542Z,98278.28
2024-04-15T02:43:13.274Z,98274.72
2024-04-15T02:45:40.159Z,98277.69
2024-04-15T02:48:06.820Z,98289.44
2024-04-15T02:50:33.480Z,98295.16
2024-04-15T02:53:00.163Z,98295.66
2024-04-15T02:55:26.993Z,98295.53
2024-04-15T02:57:53.694Z,98291.13
2024-04-15T03:00:20.357Z,98296.38
2024-04-15T03:02:47.019Z,98292.28
2024-04-15T03:05:13.747Z,98304.38
2024-04-15T03:07:40.422Z,98296.03
2024-04-15T03:10:07.069Z,98292.13
2024-04-15T03:12:33.764Z,98297.69
2024-04-15T03:15:00.566Z,98293.75
2024-04-15T03:17:27.296Z,98298.50
2024-04-15T03:19:53.930Z,98297.00
2024-04-15T03:22:20.660Z,98289.19
2024-04-15T03:24:47.344Z,98293.44
2024-04-15T03:27:13.979Z,98295.38
2024-04-15T03:29:40.669Z,98292.75
2024-04-15T03:32:07.419Z,98294.41
2024-04-15T03:34:34.185Z,98289.47
2024-04-15T03:37:00.907Z,98293.06
2024-04-15T03:39:27.519Z,98294.06
2024-04-15T03:41:54.150Z,98295.03
2024-04-15T03:44:20.856Z,98290.13
2024-04-15T03:46:47.830Z,98294.56
2024-04-15T03:49:14.505Z,98289.47
2024-04-15T03:51:41.236Z,98283.59
2024-04-15T03:54:07.862Z,98288.84
2024-04-15T03:56:34.498Z,98288.19
2024-04-15T03:59:01.391Z,98296.19
2024-04-15T04:01:28.195Z,98284.41
2024-04-15T04:03:55.104Z,98287.84
2024-04-15T04:06:21.869Z,98292.19
2024-04-15T04:08:48.554Z,98287.72
2024-04-15T04:11:15.296Z,98299.03
2024-04-15T04:13:42.085Z,98293.00
2024-04-15T04:16:08.775Z,98302.00
2024-04-15T04:18:35.526Z,98299.50
2024-04-15T04:21:02.281Z,98295.53
2024-04-15T04:23:28.956Z,98297.72
2024-04-15T04:25:55.580Z,98301.00
2024-04-15T04:28:22.386Z,98294.63
2024-04-15T04:30:49.122Z,98306.47
2024-04-15T04:33:15.914Z,98295.38
2024-04-15T04:35:42.616Z,98296.44
2024-04-15T04:38:09.255Z,98294.81
2024-04-15T04:40:35.901Z,98292.81
2024-04-15T04:43:02.777Z,98296.44
2024-04-15T04:45:29.506Z,98298.59
2024-04-15T04:47:56.262Z,98289.88
2024-04-15T04:50:23.111Z,98284.00
2024-04-15T04:52:49.912Z,98292.59
2024-04-15T04:55:16.654Z,98293.59
2024-04-15T04:57:43.428Z,98283.47
2024-04-15T05:00:10.099Z,98282.19
2024-04-15T05:02:36.745Z,98289.81
2024-04-15T05:05:03.512Z,98291.22
2024-04-15T05:07:30.472Z,98281.13
2024-04-15T05:09:57.192Z,98279.47
2024-04-15T05:12:23.989Z,98284.53
2024-04-15T05:14:50.576Z,98276.78
2024-04-15T05:17:17.265Z,98272.84
2024-04-15T05:19:43.981Z,98260.06
2024-04-15T05:22:10.659Z,98258.22
2024-04-15T05:24:37.296Z,98270.16
2024-04-15T05:27:04.117Z,98271.03
2024-04-15T05:29:30.724Z,98274.69
2024-04-15T05:31:57.363Z,98267.69
2024-04-15T05:34:24.115Z,98263.59
2024-04-15T05:36:50.787Z,98273.88
2024-04-15T05:39:17.404Z,98264.09
2024-04-15T05:41:44.104Z,98255.28
2024-04-15T05:44:10.727Z,98261.66
2024-04-15T05:46:37.334Z,98260.00
2024-04-15T05:49:04.031Z,98251.81
2024-04-15T05:51:30.715Z,98265.06
2024-04-15T05:53:57.371Z,98267.94
2024-04-15T05:56:24.029Z,98268.88
2024-04-15T05:58:50.771Z,98274.63
2024-04-15T06:01:17.441Z,98264.53
2024-04-15T06:03:44.359Z,98258.75
2024-04-15T06:06:11.037Z,98256.03
2024-04-15T06:08:37.709Z,98264.00
2024-04-15T06:11:04.493Z,98253.75
2024-04-15T06:13:31.138Z,98252.84
2024-04-15T06:15:57.882Z,98253.69
2024-04-15T06:18:24.649Z,98255.53
2024-04-15T06:20:51.277Z,98232.94
2024-04-15T06:23:17.880Z,98242.53
2024-04-15T06:25:44.634Z,98247.69
2024-04-15T06:28:11.318Z,98241.63
2024-04-15T06:30:37.972Z,98238.53
2024-04-15T06:33:04.787Z,98236.97
2024-04-15T06:35:31.464Z,98241.94
2024-04-15T06:37:58.070Z,98229.47
2024-04-15T06:40:24.812Z,98226.94
2024-04-15T06:42:51.487Z,98221.38
2024-04-15T06:45:18.185Z,98216.13
2024-04-15T06:47:44.900Z,98212.44
2024-04-15T06:50:11.581Z,98229.25
2024-04-15T06:52:38.206Z,98234.66
2024-04-15T06:55:04.923Z,98222.09
2024-04-15T06:57:31.704Z,98222.09
2024-04-15T06:59:58.400Z,98233.28
2024-04-15T07:02:25.324Z,98238.50
2024-04-15T07:04:52.103Z,98233.72
2024-04-15T07:07:18.917Z,98232.78
2024-04-15T07:09:45.656Z,98227.50
2024-04-15T07:12:12.309Z,98230.84
2024-04-15T07:14:39.013Z,98237.47
2024-04-15T07:17:05.816Z,98235.28
2024-04-15T07:19:32.495Z,98231.81
2024-04-15T07:21:59.238Z,98216.47
2024-04-15T07:24:25.977Z,98220.78
2024-04-15T07:26:52.616Z,98211.59
2024-04-15T07:29:19.278Z,98216.56
2024-04-15T07:31:46.197Z,98218.03
2024-04-15T07:34:12.978Z,98217.84
2024-04-15T07:36:39.612Z,98231.53
2024-04-15T07:39:06.325Z,98223.75
2024-04-15T07:41:32.957Z,98232.91
2024-04-15T07:43:59.596Z,98238.41
2024-04-15T07:46:26.378Z,98223.66
2024-04-15T07:48:53.029Z,98230.16
2024-04-15T07:51:19.764Z,98229.34
2024-04-15T07:53:46.558Z,98226.22
2024-04-15T07:56:13.205Z,98222.75
2024-04-15T07:58:39.860Z,98230.94
2024-04-15T08:01:06.829Z,98230.88
2024-04-15T08:03:33.523Z,98227.91
2024-04-15T08:06:00.229Z,98221.81
2024-04-15T08:08:26.904Z,98224.94
2024-04-15T08:10:53.664Z,98216.97
2024-04-15T08:13:20.332Z,98234.75
2024-04-15T08:15:47.091Z,98224.97
2024-04-15T08:18:13.848Z,98232.84
2024-04-15T08:20:40.544Z,98215.59
2024-04-15T08:23:07.250Z,98204.59
2024-04-15T08:25:33.986Z,98201.63
2024-04-15T08:28:00.702Z,98200.66
2024-04-15T08:30:27.433Z,98210.72
2024-04-15T08:32:54.169Z,98227.47
2024-04-15T08:35:20.848Z,98227.06
2024-04-15T08:37:47.591Z,98229.13
2024-04-15T08:40:14.281Z,98232.41
2024-04-15T08:42:40.905Z,98249.28
2024-04-15T08:45:07.611Z,98236.34
2024-04-15T08:47:34.443Z,98228.91
2024-04-15T08:50:01.227Z,98235.94
2024-04-15T08:52:27.984Z,98219.91
2024-04-15T08:54:54.827Z,98221.91
2024-04-15T08:57:21.577Z,98223.81
2024-04-15T08:59:48.348Z,98218.81
2024-04-15T09:02:14.994Z,98220.69
2024-04-15T09:04:41.988Z,98215.66
2024-04-15T09:07:09.014Z,98218.66
2024-04-15T09:09:35.710Z,98216.97
2024-04-15T09:12:02.444Z,98214.03
2024-04-15T09:14:29.319Z,98223.50
2024-04-15T09:16:55.982Z,98224.47
2024-04-15T09:19:22.677Z,98224.47
2024-04-15T09:21:49.492Z,98213.88
2024-04-15T09:24:16.126Z,98226.91
2024-04-15T09:26:43.448Z,98220.00
2024-04-15T09:29:10.678Z,98216.56
2024-04-15T09:31:37.454Z,98229.13
2024-04-15T09:34:04.187Z,98226.31
2024-04-15T09:36:31.000Z,98233.19
2024-04-15T09:38:57.883Z,98229.03
2024-04-15T09:41:24.521Z,98238.06
2024-04-15T09:43:51.427Z,98236.91
2024-04-15T09:46:18.098Z,98236.47
2024-04-15T09:48:44.761Z,98239.75
2024-04-15T09:51:11.532Z,98233.03
2024-04-15T09:53:38.337Z,98234.78
2024-04-15T09:56:07.688Z,98223.72
2024-04-15T09:58:35.221Z,98219.25
2024-04-15T10:01:01.954Z,98219.09
2024-04-15T10:03:28.640Z,98216.13
2024-04-15T10:05:55.367Z,98218.31
2024-04-15T10:08:22.320Z,98193.97
2024-04-15T10:10:49.026Z,98233.34
2024-04-15T10:13:15.869Z,98231.94
2024-04-15T10:15:42.560Z,98226.63
2024-04-15T10:18:09.254Z,98213.53
2024-04-15T10:20:36.003Z,98221.75
2024-04-15T10:23:04.788Z,98227.75
2024-04-15T10:25:32.981Z,98226.56
2024-04-15T10:27:59.763Z,98224.03
2024-04-15T10:30:26.490Z,98223.09
2024-04-15T10:32:53.185Z,98224.72
2024-04-15T10:35:20.067Z,98225.44
2024-04-15T10:37:46.824Z,98226.84
2024-04-15T10:40:13.636Z,98231.56
2024-04-15T10:42:40.327Z,98217.50
2024-04-15T10:45:06.977Z,98230.53
2024-04-15T10:47:33.712Z,98224.03
2024-04-15T10:50:00.498Z,98218.00
2024-04-15T10:52:27.120Z,98213.47
2024-04-15T10:54:53.852Z,98216.84
2024-04-15T10:57:20.758Z,98223.09
2024-04-15T10:59:49.772Z,98208.66
2024-04-15T11:02:19.098Z,98219.59
2024-04-15T11:04:45.932Z,98211.94
2024-04-15T11:07:12.723Z,98216.56
2024-04-15T11:09:39.428Z,98209.38
2024-04-15T11:12:06.143Z,98214.47
2024-04-15T11:14:32.777Z,98217.50
2024-04-15T11:16:59.568Z,98213.09
2024-04-15T11:19:26.523Z,98204.72
2024-04-15T11:21:53.702Z,98213.47
2024-04-15T11:24:20.783Z,98213.78
2024-04-15T11:26:47.524Z,98206.09
2024-04-15T11:29:14.165Z,98212.88
2024-04-15T11:31:41.849Z,98210.28
2024-04-15T11:34:08.757Z,98203.31
2024-04-15T11:36:35.514Z,98205.88
2024-04-15T11:39:02.248Z,98205.66
2024-04-15T11:41:29.046Z,98212.88
2024-04-15T11:43:55.850Z,98209.38
2024-04-15T11:46:22.816Z,98204.94
2024-04-15T11:48:49.796Z,98203.53
2024-04-15T11:51:16.570Z,98211.66
2024-04-15T11:53:43.275Z,98202.38
2024-04-15T11:56:10.086Z,98207.34
2024-04-15T11:58:36.928Z,98207.63
2024-04-15T12:01:03.896Z,98212.59
2024-04-15T12:03:30.787Z,98207.63
2024-04-15T12:05:57.536Z,98200.28
2024-04-15T12:08:24.235Z,98223.28
2024-04-15T12:10:51.037Z,98198.84
2024-04-15T12:13:17.794Z,98207.00
2024-04-15T12:15:44.653Z,98195.53
2024-04-15T12:18:11.509Z,98196.56
2024-04-15T12:20:38.236Z,98190.78
2024-04-15T12:23:04.980Z,98182.19
2024-04-15T12:25:31.865Z,98192.38
2024-04-15T12:27:58.590Z,98189.38
2024-04-15T12:30:25.314Z,98189.59
2024-04-15T12:32:52.193Z,98182.06
2024-04-15T12:35:18.954Z,98180.66
2024-04-15T12:37:45.833Z,98181.91
2024-04-15T12:40:12.900Z,98183.84
2024-04-15T12:42:39.953Z,98188.50
2024-04-15T12:45:06.853Z,98188.94
2024-04-15T12:47:33.927Z,98192.25
2024-04-15T12:50:00.966Z,98195.63
2024-04-15T12:52:27.945Z,98168.72
2024-04-15T12:54:54.990Z,98165.28
2024-04-15T12:57:21.810Z,98163.00
2024-04-15T12:59:48.563Z,98170.00
2024-04-15T13:02:15.520Z,98170.03
2024-04-15T13:04:42.415Z,98172.19
2024-04-15T13:07:09.236Z,98166.16
2024-04-15T13:09:36.200Z,98166.63
2024-04-15T13:12:02.902Z,98166.97
2024-04-15T13:14:29.625Z,98177.16
2024-04-15T13:16:56.443Z,98187.34
2024-04-15T13:19:23.412Z,98182.09
2024-04-15T13:21:50.240Z,98209.59
2024-04-15T13:24:17.119Z,98220.06
2024-04-15T13:26:44.035Z,98231.59
2024-04-15T13:29:10.998Z,98237.78
2024-04-15T13:31:37.818Z,98245.81
2024-04-15T13:34:05.048Z,98229.16
2024-04-15T13:36:32.254Z,98231.13
2024-04-15T13:38:59.140Z,98212.66
2024-04-15T13:41:25.963Z,98205.16
2024-04-15T13:43:52.697Z,98197.13
2024-04-15T13:46:19.569Z,98178.34
2024-04-15T13:48:46.446Z,98180.09
2024-04-15T13:51:13.296Z,98170.75
2024-04-15T13:53:40.134Z,98177.38
2024-04-15T13:56:06.848Z,98173.94
2024-04-15T13:58:33.612Z,98166.53
2024-04-15T14:01:00.557Z,98156.53
2024-04-15T14:03:27.554Z,98155.59
2024-04-15T14:05:54.368Z,98146.56
2024-04-15T14:08:21.843Z,98152.13
2024-04-15T14:10:49.284Z,98147.31
2024-04-15T14:13:16.129Z,98149.22
2024-04-15T14:15:43.660Z,98148.22
2024-04-15T14:18:10.820Z,98144.94
2024-04-15T14:20:37.635Z,98147.72
2024-04-15T14:23:04.507Z,98136.56
2024-04-15T14:25:31.281Z,98135.53
2024-04-15T14:27:58.064Z,98130.69
2024-04-15T14:30:24.938Z,98134.47
2024-04-15T14:32:51.893Z,98129.16
2024-04-15T14:35:19.071Z,98127.81
2024-04-15T14:37:45.870Z,98135.25
2024-04-15T14:40:20.025Z,98138.84
2024-04-15T14:42:50.272Z,98122.59
2024-04-15T14:45:17.018Z,98115.69
2024-04-15T14:47:43.827Z,98121.06
2024-04-15T14:50:10.679Z,98121.50
2024-04-15T14:52:37.471Z,98119.00
2024-04-15T14:55:04.417Z,98106.59
2024-04-15T14:57:31.654Z,98107.94
2024-04-15T14:59:58.430Z,98098.66
2024-04-15T15:02:25.228Z,98086.97
2024-04-15T15:04:52.054Z,98088.31
2024-04-15T15:07:18.840Z,98085.06
2024-04-15T15:09:45.662Z,98084.72
2024-04-15T15:12:13.355Z,98073.84
2024-04-15T15:14:40.558Z,98075.94
2024-04-15T15:17:07.270Z,98069.69
2024-04-15T15:19:34.125Z,98069.22
2024-04-15T15:22:00.903Z,98078.16
2024-04-15T15:24:27.848Z,98097.06
2024-04-15T15:26:54.723Z,98149.69
2024-04-15T15:29:21.445Z,98140.81
2024-04-15T15:31:48.186Z,98148.06
2024-04-15T15:34:15.253Z,98132.28
2024-04-15T15:36:42.009Z,98149.06
2024-04-15T15:39:08.843Z,98137.34
2024-04-15T15:41:35.707Z,98132.94
2024-04-15T15:44:02.472Z,98130.47
2024-04-15T15:46:29.330Z,98123.97
2024-04-15T15:48:56.407Z,98118.91
2024-04-15T15:51:23.353Z,98124.63
2024-04-15T15:53:50.210Z,98142.69
2024-04-15T15:56:17.242Z,98143.69
2024-04-15T15:58:46.389Z,98151.00
2024-04-15T16:01:13.611Z,98144.16
2024-04-15T16:03:40.464Z,98153.13
2024-04-15T16:06:07.239Z,98160.91
2024-04-15T16:08:33.956Z,98153.03
2024-04-15T16:11:01.104Z,98139.34
2024-04-15T16:13:28.411Z,98132.50
2024-04-15T16:15:55.339Z,98143.91
2024-04-15T16:18:22.200Z,98130.06
2024-04-15T16:20:48.956Z,98131.97
2024-04-15T16:23:15.765Z,98138.63
2024-04-15T16:25:42.599Z,98140.94
2024-04-15T16:28:09.398Z,98141.25
2024-04-15T16:30:36.160Z,98138.00
2024-04-15T16:33:03.140Z,98136.91
2024-04-15T16:35:29.988Z,98146.84
2024-04-15T16:37:56.707Z,98142.94
2024-04-15T16:40:23.567Z,98148.94
2024-04-15T16:42:50.358Z,98149.59
2024-04-15T16:45:17.081Z,98151.41
2024-04-15T16:47:44.122Z,98154.19
2024-04-15T16:50:11.158Z,98157.78
2024-04-15T16:52:37.857Z,98169.34
2024-04-15T16:55:04.939Z,98166.47
2024-04-15T16:57:31.919Z,98166.78
2024-04-15T16:59:58.721Z,98179.50
2024-04-15T17:02:25.588Z,98178.69
2024-04-15T17:04:54.645Z,98187.34
2024-04-15T17:07:21.489Z,98193.22
2024-04-15T17:09:48.372Z,98220.63
2024-04-15T17:12:15.185Z,98215.91
2024-04-15T17:14:41.874Z,98203.16
2024-04-15T17:17:10.892Z,98193.78
2024-04-15T17:19:39.236Z,98206.66
2024-04-15T17:22:06.289Z,98200.63
2024-04-15T17:24:33.498Z,98199.81
2024-04-15T17:27:00.823Z,98205.22
2024-04-15T17:29:28.637Z,98192.03
2024-04-15T17:31:55.422Z,98207.53
2024-04-15T17:34:22.260Z,98200.41
2024-04-15T17:36:49.215Z,98207.88
2024-04-15T17:39:16.025Z,98198.44
2024-04-15T17:41:42.765Z,98200.25
2024-04-15T17:44:12.103Z,98204.03
2024-04-15T17:46:40.408Z,98206.78
2024-04-15T17:49:07.187Z,98211.94
2024-04-15T17:51:33.912Z,98206.94
2024-04-15T17:54:00.814Z,98193.09
2024-04-15T17:56:27.704Z,98185.72
2024-04-15T17:58:55.449Z,98185.41
2024-04-15T18:01:22.509Z,98181.13
2024-04-15T18:03:49.275Z,98183.84
2024-04-15T18:06:16.691Z,98176.69
2024-04-15T18:08:43.700Z,98181.88
2024-04-15T18:11:10.511Z,98177.47
2024-04-15T18:13:37.383Z,98183.81
2024-04-15T18:16:04.495Z,98184.94
2024-04-15T18:18:34.791Z,98178.78
2024-04-15T18:21:01.555Z,98180.41
2024-04-15T18:23:28.398Z,98182.22
2024-04-15T18:25:55.271Z,98178.31
2024-04-15T18:28:22.102Z,98178.50
2024-04-15T18:30:52.170Z,98174.16
2024-04-15T18:33:19.094Z,98169.75
2024-04-15T18:35:45.944Z,98175.75
2024-04-15T18:38:12.875Z,98167.97
2024-04-15T18:40:40.509Z,98164.53
2024-04-15T18:43:07.541Z,98172.03
2024-04-15T18:45:34.577Z,98167.47
2024-04-15T18:48:01.752Z,98168.31
2024-04-15T18:50:29.063Z,98166.50
2024-04-15T18:52:56.007Z,98165.16
2024-04-15T18:55:22.717Z,98163.69
2024-04-15T18:57:49.459Z,98171.88
2024-04-15T19:00:16.476Z,98168.66
2024-04-15T19:02:43.293Z,98173.56
2024-04-15T19:05:10.050Z,98170.78
2024-04-15T19:07:37.944Z,98168.50
2024-04-15T19:10:04.868Z,98176.19
2024-04-15T19:12:32.496Z,98182.88
2024-04-15T19:17:32.334Z,98176.25
2024-04-15T19:19:59.511Z,98176.25
2024-04-15T19:22:27.727Z,98171.69
2024-04-15T19:24:54.553Z,98167.97
2024-04-15T19:27:21.392Z,98172.34
2024-04-15T19:29:48.153Z,98168.44
2024-04-15T19:32:15.046Z,98163.25
2024-04-15T19:34:41.961Z,98169.41
2024-04-15T19:37:11.025Z,98174.78
2024-04-15T19:39:37.766Z,98162.06
2024-04-15T19:42:04.781Z,98165.50
2024-04-15T19:44:31.537Z,98173.50
2024-04-15T19:46:58.234Z,98167.16
2024-04-15T19:49:25.058Z,98170.59
2024-04-15T19:51:51.873Z,98168.13
2024-04-15T19:54:18.675Z,98159.50
2024-04-15T19:56:45.468Z,98172.34
2024-04-15T19:59:12.176Z,98180.53
2024-04-15T20:01:38.960Z,98172.72
2024-04-15T20:04:05.874Z,98181.19
2024-04-15T20:06:32.861Z,98179.69
2024-04-15T20:08:59.586Z,98177.59
2024-04-15T20:11:26.439Z,98177.09
2024-04-15T20:13:53.317Z,98176.75
2024-04-15T20:16:20.101Z,98175.13
2024-04-15T20:18:47.041Z,98169.75
2024-04-15T20:21:13.862Z,98172.03
2024-04-15T20:23:40.563Z,98169.75
2024-04-15T20:26:07.360Z,98166.81
2024-04-15T20:28:34.234Z,98170.38
2024-04-15T20:31:01.074Z,98190.28
2024-04-15T20:33:27.969Z,98181.97
2024-04-15T20:35:54.701Z,98176.13
2024-04-15T20:38:21.432Z,98174.94
2024-04-15T20:40:48.273Z,98177.56
2024-04-15T20:43:15.037Z,98186.88
2024-04-15T20:45:41.804Z,98180.66
2024-04-15T20:48:08.747Z,98184.09
2024-04-15T20:50:35.482Z,98174.00
2024-04-15T20:53:02.233Z,98183.94
2024-04-15T20:55:29.194Z,98173.97
2024-04-15T20:57:56.050Z,98172.03
2024-04-15T21:00:22.748Z,98165.34
2024-04-15T21:02:49.563Z,98171.06
2024-04-15T21:05:16.271Z,98168.81
2024-04-15T21:07:43.004Z,98166.66
2024-04-15T21:10:09.830Z,98168.63
2024-04-15T21:12:36.666Z,98175.13
2024-04-15T21:15:03.429Z,98169.28
2024-04-15T21:17:30.703Z,98172.34
2024-04-15T21:19:57.470Z,98176.28
2024-04-15T21:22:24.198Z,98166.66
2024-04-15T21:24:50.972Z,98172.53
2024-04-15T21:27:17.692Z,98165.84
2024-04-15T22:03:30.066Z,98198.78
2024-04-15T22:05:56.795Z,98197.16
2024-04-15T22:08:23.522Z,98203.84
2024-04-15T22:10:50.455Z,98192.75
2024-04-15T22:13:17.348Z,98203.84
2024-04-15T22:15:44.073Z,98198.13
2024-04-15T22:18:11.009Z,98203.66
2024-04-15T22:20:37.767Z,98194.53
2024-04-15T22:23:04.474Z,98200.88
2024-04-15T22:25:31.406Z,98195.69
2024-04-15T22:27:58.293Z,98203.63
2024-04-15T22:30:25.031Z,98206.59
2024-04-15T22:32:51.981Z,98207.22
2024-04-15T22:35:18.769Z,98211.75
2024-04-15T22:37:45.442Z,98220.59
2024-04-15T22:40:12.217Z,98216.03
2024-04-15T22:42:38.930Z,98216.66
2024-04-15T22:45:05.671Z,98220.06
2024-04-15T22:47:32.588Z,98219.59
2024-04-15T22:49:59.394Z,98222.47
2024-04-15T22:52:26.108Z,98215.66
2024-04-15T22:54:52.975Z,98222.38
2024-04-15T22:57:19.724Z,98217.00
2024-04-15T22:59:46.520Z,98228.44
2024-04-15T23:02:13.431Z,98221.59
2024-04-15T23:04:40.348Z,98225.19
2024-04-15T23:07:07.184Z,98213.78
2024-04-15T23:09:34.023Z,98229.78
2024-04-15T23:12:00.728Z,98229.25
2024-04-15T23:14:27.466Z,98224.81
2024-04-15T23:16:54.323Z,98219.94
2024-04-15T23:19:21.153Z,98225.47
2024-04-15T23:21:48.016Z,98215.03
2024-04-15T23:24:14.813Z,98211.59
2024-04-15T23:26:41.532Z,98209.34
2024-04-15T23:29:08.253Z,98207.53
2024-04-15T23:31:35.192Z,98202.25
2024-04-15T23:34:02.004Z,98211.53
2024-04-15T23:36:28.729Z,98213.47
2024-04-15T23:38:55.489Z,98217.53
2024-04-15T23:41:22.286Z,98208.78
2024-04-15T23:43:49.027Z,98205.84
2024-04-15T23:46:15.891Z,98211.41
2024-04-15T23:48:42.709Z,98209.44
2024-04-15T23:51:09.401Z,98211.41
2024-04-15T23:53:36.312Z,98211.41
2024-04-15T23:56:03.022Z,98212.88
2024-04-15T23:58:29.870Z,98219.94
